Time;durP1;ratioP1;P1;durP2;ratioP2;P2;SDS_P1;SDS_P2;PMS_P1;PMS_P2;Temp;Humidity;BMP_temperature;BMP_pressure;BME280_temperature;BME280_humidity;BME280_pressure;Samples;Min_cycle;Max_cycle;Signal;HPM_P1;HPM_P2
2022/07/30 00:02:03;;;;;;;1.75;1.65;;;22.30;63.30;;;;;;6242376;22;43352;-61
2022/07/30 00:04:33;;;;;;;1.42;1.40;;;22.30;63.30;;;;;;6241911;22;43438;-60
2022/07/30 00:07:02;;;;;;;1.42;1.33;;;22.30;63.30;;;;;;6241349;22;44622;-61
2022/07/30 00:09:31;;;;;;;1.50;1.27;;;22.30;63.30;;;;;;6242249;22;43789;-62
2022/07/30 00:12:02;;;;;;;;;;;22.30;63.30;;;;;;6241473;22;43328;-61
2022/07/30 00:14:31;;;;;;;1.30;1.20;;;22.30;63.40;;;;;;6241026;22;43458;-61
2022/07/30 00:16:58;;;;;;;1.70;1.60;;;22.20;63.30;;;;;;6242085;22;44011;-61
2022/07/30 00:19:26;;;;;;;1.40;1.30;;;22.20;63.30;;;;;;6241973;22;43508;-61
2022/07/30 00:21:54;;;;;;;1.40;1.30;;;22.20;63.30;;;;;;6241738;22;43358;-61
2022/07/30 00:24:22;;;;;;;1.42;1.33;;;22.20;63.30;;;;;;6241858;22;43478;-61
2022/07/30 00:26:50;;;;;;;1.45;1.35;;;22.20;63.30;;;;;;6241827;22;44602;-61
2022/07/30 00:29:17;;;;;;;1.50;1.40;;;22.20;63.30;;;;;;6241281;22;43431;-61
2022/07/30 00:31:45;;;;;;;1.63;1.50;;;22.20;63.30;;;;;;6214562;22;43464;-61
2022/07/30 00:34:13;;;;;;;1.13;1.13;;;22.20;63.30;;;;;;6241655;22;43450;-61
2022/07/30 00:36:40;;;;;;;1.50;1.40;;;22.30;63.40;;;;;;6240717;22;43764;-61
2022/07/30 00:39:08;;;;;;;1.60;1.50;;;22.30;63.40;;;;;;6241735;22;43339;-60
2022/07/30 00:41:53;;;;;;;1.60;1.50;;;22.20;63.30;;;;;;6241858;22;43459;-61
2022/07/30 00:44:20;;;;;;;1.40;1.30;;;22.20;63.30;;;;;;6243049;22;43453;-61
2022/07/30 00:46:48;;;;;;;1.50;1.40;;;22.20;63.30;;;;;;6242796;22;44842;-61
2022/07/30 00:49:15;;;;;;;1.88;1.45;;;22.20;63.30;;;;;;6242439;22;45009;-61
2022/07/30 00:51:43;;;;;;;1.60;1.50;;;22.20;63.30;;;;;;6243463;22;43326;-61
2022/07/30 00:54:11;;;;;;;1.52;1.40;;;22.10;63.30;;;;;;6243152;22;44017;-61
2022/07/30 00:56:38;;;;;;;1.67;1.58;;;22.20;63.30;;;;;;6241956;22;44942;-61
2022/07/30 00:59:06;;;;;;;1.80;1.60;;;22.20;63.30;;;;;;6216073;22;43982;-62
2022/07/30 01:01:34;;;;;;;1.35;1.25;;;22.10;63.30;;;;;;6243409;22;43391;-61
2022/07/30 01:04:02;;;;;;;1.70;1.40;;;22.10;63.30;;;;;;6242946;22;43371;-61
2022/07/30 01:06:30;;;;;;;1.33;1.25;;;22.20;63.30;;;;;;6215545;22;44836;-61
2022/07/30 01:08:57;;;;;;;1.10;1.10;;;22.10;63.30;;;;;;6216617;22;44076;-61
2022/07/30 01:11:33;;;;;;;1.67;1.52;;;22.10;63.30;;;;;;6215416;22;43428;-61
2022/07/30 01:14:00;;;;;;;1.33;1.30;;;22.10;63.30;;;;;;6243654;22;43383;-61
2022/07/30 01:16:28;;;;;;;1.80;1.70;;;22.10;63.30;;;;;;6242350;22;43869;-61
2022/07/30 01:21:50;;;;;;;1.77;1.63;;;22.10;63.30;;;;;;6243562;22;43444;-61
2022/07/30 01:24:33;;;;;;;1.58;1.48;;;22.10;63.30;;;;;;6242717;22;43381;-61
2022/07/30 01:27:01;;;;;;;1.63;1.52;;;22.10;63.30;;;;;;6243339;22;44915;-61
2022/07/30 01:29:32;;;;;;;1.92;1.83;;;22.10;63.30;;;;;;6242876;22;43974;-61
2022/07/30 01:32:03;;;;;;;;;;;22.00;63.30;;;;;;6216049;22;43431;-61
2022/07/30 01:34:33;;;;;;;1.50;1.40;;;22.00;63.30;;;;;;6215777;22;43604;-61
2022/07/30 01:37:02;;;;;;;1.60;1.50;;;22.00;63.40;;;;;;6243443;22;44846;-61
2022/07/30 01:39:32;;;;;;;1.50;1.40;;;22.00;63.40;;;;;;6214781;22;43502;-61
2022/07/30 01:42:04;;;;;;;1.38;1.27;;;22.00;63.30;;;;;;6216713;22;43391;-61
2022/07/30 01:44:32;;;;;;;2.47;1.42;;;22.00;63.30;;;;;;6216183;22;43431;-61
2022/07/30 01:47:02;;;;;;;1.67;1.58;;;22.00;63.40;;;;;;6242072;22;44710;-61
2022/07/30 01:49:33;;;;;;;1.60;1.50;;;22.00;63.30;;;;;;6216204;22;43913;-60
2022/07/30 01:52:03;;;;;;;1.70;1.58;;;22.00;63.30;;;;;;6216869;22;43989;-61
2022/07/30 01:54:32;;;;;;;1.40;1.30;;;22.00;63.30;;;;;;6242621;22;43414;-62
2022/07/30 01:57:01;;;;;;;1.98;1.80;;;22.00;63.30;;;;;;6215910;22;43925;-61
2022/07/30 01:59:33;;;;;;;1.40;1.30;;;22.00;63.30;;;;;;6214955;22;43393;-61
2022/07/30 02:02:01;;;;;;;1.60;1.50;;;22.00;63.40;;;;;;6216535;22;43384;-61
2022/07/30 02:04:29;;;;;;;1.60;1.50;;;22.00;63.30;;;;;;6242955;22;43543;-61
2022/07/30 02:07:15;;;;;;;1.42;1.40;;;22.00;63.30;;;;;;6242228;22;43960;-61
2022/07/30 02:10:00;;;;;;;1.75;1.58;;;22.00;63.30;;;;;;6216424;22;43521;-61
2022/07/30 02:12:34;;;;;;;1.58;1.48;;;22.00;63.30;;;;;;6215552;22;43487;-61
2022/07/30 02:15:22;;;;;;;1.60;1.50;;;21.90;63.30;;;;;;6215509;22;43348;-61
2022/07/30 02:18:06;;;;;;;1.60;1.30;;;21.90;63.30;;;;;;6242993;22;44005;-61
2022/07/30 02:20:34;;;;;;;1.60;1.50;;;21.90;63.30;;;;;;6215029;22;43407;-61
2022/07/30 02:23:09;;;;;;;1.60;1.50;;;21.90;63.30;;;;;;6216231;22;43356;-61
2022/07/30 02:25:41;;;;;;;1.70;1.60;;;21.90;63.30;;;;;;6243048;22;43977;-61
2022/07/30 02:28:13;;;;;;;1.50;1.40;;;21.90;63.30;;;;;;6214958;22;44649;-61
2022/07/30 02:30:53;;;;;;;1.27;1.27;;;21.90;63.30;;;;;;6215253;22;43917;-61
2022/07/30 02:33:25;;;;;;;1.50;1.40;;;21.90;63.30;;;;;;6216274;22;43369;-61
2022/07/30 02:35:54;;;;;;;1.67;1.58;;;21.90;63.30;;;;;;6215504;22;43572;-61
2022/07/30 02:38:25;;;;;;;1.63;1.30;;;21.90;63.30;;;;;;6242824;22;44032;-61
2022/07/30 02:40:56;;;;;;;1.50;1.40;;;21.90;63.30;;;;;;6243406;22;43400;-60
2022/07/30 02:43:25;;;;;;;1.80;1.70;;;21.90;63.30;;;;;;6215576;22;43359;-61
2022/07/30 02:45:53;;;;;;;1.27;1.27;;;21.80;63.30;;;;;;6215911;22;43448;-61
2022/07/30 02:48:26;;;;;;;;;;;21.80;63.30;;;;;;6215454;22;44984;-61
2022/07/30 02:51:04;;;;;;;1.40;1.30;;;21.80;63.30;;;;;;6216043;22;43468;-61
2022/07/30 02:53:33;;;;;;;1.60;1.50;;;21.80;63.40;;;;;;6216017;22;43383;-60
2022/07/30 02:56:01;;;;;;;1.20;1.20;;;21.80;63.40;;;;;;6215094;22;43517;-61
2022/07/30 02:58:30;;;;;;;1.70;1.60;;;21.80;63.40;;;;;;6215007;22;43717;-61
2022/07/30 03:01:00;;;;;;;1.33;1.27;;;21.80;63.40;;;;;;6215873;22;43910;-61
2022/07/30 03:03:30;;;;;;;1.55;1.45;;;21.80;63.40;;;;;;6215051;22;43379;-61
2022/07/30 03:05:59;;;;;;;1.60;1.50;;;21.80;63.40;;;;;;6242362;22;43441;-61
2022/07/30 03:08:27;;;;;;;1.70;1.60;;;21.80;63.40;;;;;;6215237;22;43992;-62
2022/07/30 03:10:56;;;;;;;1.70;1.60;;;21.70;63.40;;;;;;6214782;22;43484;-61
2022/07/30 03:13:24;;;;;;;1.70;1.60;;;21.80;63.40;;;;;;6215689;22;43345;-61
2022/07/30 03:15:55;;;;;;;1.50;1.40;;;21.80;63.30;;;;;;6242534;22;43530;-61
2022/07/30 03:18:23;;;;;;;;;;;21.70;63.30;;;;;;6215201;22;44931;-61
2022/07/30 03:20:54;;;;;;;1.70;1.60;;;21.70;63.30;;;;;;6215391;22;43786;-61
2022/07/30 03:23:23;;;;;;;1.40;1.30;;;21.70;63.40;;;;;;6242858;22;43387;-61
2022/07/30 03:25:55;;;;;;;1.58;1.48;;;21.70;63.40;;;;;;6214767;22;44173;-61
2022/07/30 03:28:24;;;;;;;1.80;1.70;;;21.70;63.40;;;;;;6215439;22;44773;-61
2022/07/30 03:30:52;;;;;;;1.67;1.58;;;21.70;63.40;;;;;;6240964;22;43659;-61
2022/07/30 03:33:21;;;;;;;1.50;1.40;;;21.70;63.30;;;;;;6215897;22;43473;-61
2022/07/30 03:35:50;;;;;;;2.13;1.63;;;21.70;63.30;;;;;;6242247;22;43426;-61
2022/07/30 03:38:18;;;;;;;1.40;1.40;;;21.70;63.30;;;;;;6214315;22;44655;-62
2022/07/30 03:40:46;;;;;;;1.60;1.60;;;21.70;63.30;;;;;;6214755;22;43975;-61
2022/07/30 03:43:14;;;;;;;1.73;1.58;;;21.70;63.30;;;;;;6215637;22;43939;-61
2022/07/30 03:46:04;;;;;;;1.60;1.50;;;21.70;63.30;;;;;;6215138;22;43321;-61
2022/07/30 03:48:35;;;;;;;1.35;1.30;;;21.70;63.30;;;;;;6214922;22;44049;-61
2022/07/30 03:51:06;;;;;;;1.60;1.50;;;21.60;63.30;;;;;;6214826;22;44027;-61
2022/07/30 03:53:34;;;;;;;1.67;1.58;;;21.60;63.30;;;;;;6241353;22;43421;-61
2022/07/30 03:56:20;;;;;;;2.15;1.50;;;21.60;63.30;;;;;;6242045;22;43421;-61
2022/07/30 03:59:14;;;;;;;1.75;1.50;;;21.60;63.30;;;;;;6214088;22;43756;-61
2022/07/30 04:01:42;;;;;;;1.75;1.60;;;21.60;63.30;;;;;;6213935;22;43437;-61
2022/07/30 04:04:42;;;;;;;1.70;1.60;;;21.60;63.30;;;;;;6214667;22;43397;-61
2022/07/30 04:07:10;;;;;;;2.05;1.85;;;21.60;63.30;;;;;;6214812;22;43528;-61
2022/07/30 04:09:38;;;;;;;1.73;1.60;;;21.60;63.30;;;;;;6214906;22;44970;-61
2022/07/30 04:12:23;;;;;;;1.80;1.60;;;21.60;63.30;;;;;;6214574;22;43412;-61
2022/07/30 04:14:52;;;;;;;1.48;1.38;;;21.60;63.30;;;;;;6214028;22;43444;-61
2022/07/30 04:17:38;;;;;;;1.88;1.77;;;21.60;63.30;;;;;;6214793;22;43501;-62
2022/07/30 04:20:13;;;;;;;1.90;1.80;;;21.60;63.20;;;;;;6215804;22;43923;-61
2022/07/30 04:22:45;;;;;;;1.75;1.65;;;21.60;63.30;;;;;;6216327;22;43929;-61
2022/07/30 04:25:13;;;;;;;1.60;1.48;;;21.50;63.20;;;;;;6216496;22;43340;-61
2022/07/30 04:27:50;;;;;;;2.58;1.85;;;21.50;63.20;;;;;;6215833;22;43463;-61
2022/07/30 04:30:33;;;;;;;3.75;1.85;;;21.50;63.20;;;;;;6215802;22;44897;-61
2022/07/30 04:33:03;;;;;;;1.92;1.83;;;21.50;63.20;;;;;;6216894;22;43605;-61
2022/07/30 04:35:56;;;;;;;2.08;1.98;;;21.50;63.20;;;;;;6237727;22;43525;-61
2022/07/30 04:38:35;;;;;;;2.47;2.00;;;21.50;63.20;;;;;;6216256;22;43548;-61
2022/07/30 04:41:03;;;;;;;2.50;1.90;;;21.50;63.20;;;;;;6242414;22;44949;-61
2022/07/30 04:43:51;;;;;;;2.03;1.92;;;21.50;63.20;;;;;;6221520;22;43440;-61
2022/07/30 04:46:20;;;;;;;2.08;1.70;;;21.50;63.20;;;;;;6216142;22;43403;-60
2022/07/30 04:48:52;;;;;;;2.00;1.90;;;21.50;63.20;;;;;;6215858;22;43450;-61
2022/07/30 04:51:28;;;;;;;2.00;1.90;;;21.50;63.20;;;;;;6243390;22;43885;-61
2022/07/30 04:53:57;;;;;;;2.00;1.90;;;21.50;63.20;;;;;;6244035;22;43686;-61
2022/07/30 04:56:26;;;;;;;2.60;2.00;;;21.50;63.20;;;;;;6242624;22;43394;-61
2022/07/30 04:58:55;;;;;;;3.17;2.05;;;21.50;63.20;;;;;;6216634;22;43449;-61
2022/07/30 05:01:26;;;;;;;1.92;1.83;;;21.40;63.10;;;;;;6215827;22;43899;-61
2022/07/30 05:04:09;;;;;;;2.58;2.25;;;21.40;63.20;;;;;;6215628;22;43608;-61
2022/07/30 05:06:38;;;;;;;2.25;1.77;;;21.40;63.10;;;;;;6215975;22;43357;-61
2022/07/30 05:09:06;;;;;;;2.63;2.38;;;21.40;63.20;;;;;;6215166;22;44063;-61
2022/07/30 05:11:33;;;;;;;3.15;2.05;;;21.40;63.00;;;;;;6215819;22;44938;-61
2022/07/30 05:14:01;;;;;;;2.80;2.15;;;21.40;63.10;;;;;;6243625;22;44091;-61
2022/07/30 05:16:29;;;;;;;2.33;1.90;;;21.40;63.10;;;;;;6215145;22;43404;-61
2022/07/30 05:18:58;;;;;;;4.95;2.13;;;21.40;63.10;;;;;;6191763;22;43427;-61
2022/07/30 05:21:27;;;;;;;2.03;1.88;;;21.40;63.00;;;;;;6215985;22;43856;-61
2022/07/30 05:23:56;;;;;;;2.30;2.10;;;21.40;63.00;;;;;;6242940;22;43454;-61
2022/07/30 05:26:30;;;;;;;1.70;1.60;;;21.40;63.10;;;;;;6215972;22;43448;-61
2022/07/30 05:28:58;;;;;;;2.13;2.00;;;21.40;63.10;;;;;;6215997;22;43473;-61
2022/07/30 05:31:32;;;;;;;1.92;1.75;;;21.40;63.00;;;;;;6214478;22;45753;-61
2022/07/30 05:34:02;;;;;;;1.70;1.60;;;21.40;63.10;;;;;;6216286;22;43420;-61
2022/07/30 05:36:43;;;;;;;2.15;1.60;;;21.40;63.10;;;;;;6215904;22;43964;-61
2022/07/30 05:39:15;;;;;;;2.33;1.90;;;21.40;63.10;;;;;;6215392;22;43405;-62
2022/07/30 05:41:51;;;;;;;3.05;1.70;;;21.40;63.10;;;;;;6243123;22;45010;-61
2022/07/30 05:44:23;;;;;;;2.30;1.65;;;21.30;63.10;;;;;;6215577;22;43928;-61
2022/07/30 05:46:51;;;;;;;2.00;1.90;;;21.30;63.00;;;;;;6215930;22;43389;-61
2022/07/30 05:49:19;;;;;;;2.78;1.60;;;21.40;63.20;;;;;;6216022;22;43570;-61
2022/07/30 05:51:48;;;;;;;2.13;1.73;;;21.30;63.10;;;;;;6215318;22;43857;-61
2022/07/30 05:54:17;;;;;;;1.70;1.60;;;21.30;63.10;;;;;;6215667;22;43973;-61
2022/07/30 05:57:05;;;;;;;2.25;1.50;;;21.30;63.10;;;;;;6241777;22;43443;-60
2022/07/30 05:59:36;;;;;;;2.67;1.63;;;21.30;63.10;;;;;;6215428;22;43403;-61
2022/07/30 06:02:08;;;;;;;1.63;1.50;;;21.30;63.10;;;;;;6216013;22;44707;-61
2022/07/30 06:05:02;;;;;;;1.40;1.30;;;21.30;63.20;;;;;;6218994;22;43758;-60
2022/07/30 06:07:30;;;;;;;1.52;1.40;;;21.30;63.20;;;;;;6215169;22;43402;-61
2022/07/30 06:10:00;;;;;;;1.50;1.40;;;21.30;63.10;;;;;;6216324;22;43419;-61
2022/07/30 06:12:29;;;;;;;1.52;1.30;;;21.30;63.10;;;;;;6241926;22;44635;-61
2022/07/30 06:14:57;;;;;;;1.42;1.42;;;21.30;63.20;;;;;;6216079;22;43798;-62
2022/07/30 06:17:32;;;;;;;2.45;1.52;;;21.30;63.20;;;;;;6242796;22;43470;-62
2022/07/30 06:20:12;;;;;;;1.45;1.35;;;21.30;63.20;;;;;;6242407;22;43389;-61
2022/07/30 06:23:12;;;;;;;2.28;1.60;;;21.30;63.20;;;;;;6217747;22;44806;-62
2022/07/30 06:26:02;;;;;;;2.13;1.48;;;21.30;63.20;;;;;;6215966;22;43932;-61
2022/07/30 06:28:30;;;;;;;1.40;1.40;;;21.30;63.20;;;;;;6189358;22;43390;-62
2022/07/30 06:31:19;;;;;;;1.52;1.42;;;21.30;63.20;;;;;;6185213;22;43904;-62
2022/07/30 06:33:47;;;;;;;2.15;1.40;;;21.30;63.20;;;;;;6209759;22;44982;-61
2022/07/30 06:36:14;;;;;;;7.18;1.92;;;21.40;63.30;;;;;;6210192;22;43462;-62
2022/07/30 06:38:51;;;;;;;1.35;1.30;;;21.40;63.50;;;;;;6210831;22;43431;-62
2022/07/30 06:41:27;;;;;;;1.50;1.40;;;21.40;63.30;;;;;;6209904;22;43551;-62
2022/07/30 06:43:57;;;;;;;1.50;1.40;;;21.30;63.20;;;;;;6211239;22;44924;-62
2022/07/30 06:46:43;;;;;;;2.13;1.50;;;21.40;63.30;;;;;;6212143;22;43673;-62
2022/07/30 06:49:11;;;;;;;3.10;1.65;;;21.30;63.30;;;;;;6210143;22;43468;-62
2022/07/30 06:51:39;;;;;;;1.60;1.50;;;21.30;63.30;;;;;;6212317;22;43407;-62
2022/07/30 06:54:07;;;;;;;1.50;1.40;;;21.30;63.30;;;;;;6210559;22;44065;-62
2022/07/30 06:57:00;;;;;;;1.50;1.35;;;21.40;63.30;;;;;;6210540;22;43747;-61
2022/07/30 06:59:29;;;;;;;2.05;1.85;;;21.30;63.30;;;;;;6184774;22;43432;-60
2022/07/30 07:02:08;;;;;;;1.52;1.42;;;21.30;63.30;;;;;;6210121;22;43385;-62
2022/07/30 07:04:53;;;;;;;1.50;1.40;;;21.30;63.30;;;;;;6210871;22;44874;-61
2022/07/30 07:07:20;;;;;;;1.80;1.50;;;21.40;63.30;;;;;;6210033;22;43389;-60
2022/07/30 07:10:09;;;;;;;1.95;1.23;;;21.40;63.30;;;;;;6209291;22;43363;-61
2022/07/30 07:12:54;;;;;;;1.60;1.50;;;21.40;63.40;;;;;;6210904;22;43498;-65
2022/07/30 07:15:23;;;;;;;1.98;1.77;;;21.40;63.50;;;;;;6210277;22;43932;-62
2022/07/30 07:18:06;;;;;;;1.65;1.55;;;21.40;63.50;;;;;;6210255;22;43400;-62
2022/07/30 07:20:36;;;;;;;2.05;1.60;;;21.40;63.80;;;;;;6210305;22;43446;-61
2022/07/30 07:23:07;;;;;;;3.63;1.80;;;21.40;63.70;;;;;;6209867;22;43471;-62
2022/07/30 07:25:40;;;;;;;3.58;1.60;;;21.40;63.70;;;;;;6210230;22;45080;-61
2022/07/30 07:28:08;;;;;;;2.95;1.60;;;21.50;63.70;;;;;;6210216;22;43739;-62
2022/07/30 07:30:42;;;;;;;3.72;2.00;;;21.50;63.70;;;;;;6210412;22;43462;-62
2022/07/30 07:33:11;;;;;;;3.25;2.10;;;21.50;63.70;;;;;;6215553;22;43553;-61
2022/07/30 07:35:43;;;;;;;3.28;1.80;;;21.50;63.70;;;;;;6215389;22;43944;-62
2022/07/30 07:38:25;;;;;;;2.10;1.85;;;21.40;63.60;;;;;;6214310;22;43399;-62
2022/07/30 07:40:54;;;;;;;2.58;1.70;;;21.50;63.60;;;;;;6215195;22;43503;-62
2022/07/30 07:43:21;;;;;;;1.77;1.58;;;21.50;63.70;;;;;;6215482;22;43382;-61
2022/07/30 07:45:49;;;;;;;2.55;1.90;;;21.50;63.60;;;;;;6214185;22;45135;-62
2022/07/30 07:48:17;;;;;;;1.90;1.80;;;21.50;63.60;;;;;;6213743;22;43440;-62
2022/07/30 07:51:08;;;;;;;2.03;1.83;;;21.50;63.60;;;;;;6239753;22;43452;-61
2022/07/30 07:53:37;;;;;;;2.47;1.70;;;21.40;63.70;;;;;;6216152;22;43945;-62
2022/07/30 07:56:07;;;;;;;2.47;1.70;;;21.50;63.70;;;;;;6216052;22;44713;-62
2022/07/30 07:58:35;;;;;;;2.05;1.80;;;21.40;63.70;;;;;;6215269;22;43430;-62
2022/07/30 08:01:08;;;;;;;3.25;2.10;;;21.50;63.70;;;;;;6216496;22;43416;-62
2022/07/30 08:04:05;;;;;;;1.88;1.65;;;21.40;63.70;;;;;;6222779;22;43562;-62
2022/07/30 08:06:55;;;;;;;2.10;1.75;;;21.50;63.70;;;;;;6242910;22;44997;-63
2022/07/30 08:09:45;;;;;;;2.47;1.80;;;21.50;63.70;;;;;;6239938;22;44042;-62
2022/07/30 08:12:19;;;;;;;2.85;1.73;;;21.50;63.70;;;;;;6215413;22;43461;-62
2022/07/30 08:15:08;;;;;;;1.55;1.45;;;21.50;63.90;;;;;;6243638;22;43542;-61
2022/07/30 08:17:53;;;;;;;1.90;1.60;;;21.50;63.80;;;;;;6242897;22;43886;-62
2022/07/30 08:20:44;;;;;;;1.55;1.45;;;21.50;63.90;;;;;;6224731;22;43487;-62
2022/07/30 08:23:13;;;;;;;1.70;1.60;;;21.50;63.80;;;;;;6215557;22;43468;-61
2022/07/30 08:25:40;;;;;;;2.92;1.90;;;21.50;63.80;;;;;;6216319;22;43450;-62
2022/07/30 08:28:09;;;;;;;1.75;1.65;;;21.60;63.90;;;;;;6214648;22;43951;-62
2022/07/30 08:30:56;;;;;;;3.45;1.70;;;21.60;64.00;;;;;;6243639;22;43930;-62
2022/07/30 08:33:28;;;;;;;1.60;1.50;;;21.60;63.90;;;;;;6242510;22;43477;-62
2022/07/30 08:35:56;;;;;;;1.60;1.50;;;21.60;63.90;;;;;;6216411;22;43629;-62
2022/07/30 08:38:31;;;;;;;2.53;1.75;;;21.60;64.00;;;;;;6243120;22;45094;-63
2022/07/30 08:40:59;;;;;;;2.00;1.50;;;21.60;64.00;;;;;;6242496;22;43370;-62
2022/07/30 08:43:28;;;;;;;2.85;1.40;;;21.60;64.00;;;;;;6243530;22;43368;-62
2022/07/30 08:45:59;;;;;;;1.63;1.52;;;21.60;64.00;;;;;;6216275;22;43431;-62
2022/07/30 08:48:37;;;;;;;1.60;1.50;;;21.60;64.00;;;;;;6214739;22;44006;-62
2022/07/30 08:51:06;;;;;;;3.00;1.52;;;21.60;64.00;;;;;;6215629;22;43797;-62
2022/07/30 08:53:34;;;;;;;1.65;1.50;;;21.60;64.00;;;;;;6243481;22;43408;-63
2022/07/30 08:56:03;;;;;;;1.60;1.50;;;21.60;64.00;;;;;;6215027;22;43512;-63
2022/07/30 08:58:34;;;;;;;2.10;1.90;;;21.70;64.00;;;;;;6215398;22;43748;-62
2022/07/30 09:01:03;;;;;;;1.75;1.50;;;21.70;64.10;;;;;;6216006;22;43967;-62
2022/07/30 09:03:31;;;;;;;3.05;1.60;;;21.70;64.10;;;;;;6242660;22;43481;-62
2022/07/30 09:06:02;;;;;;;1.38;1.30;;;21.70;64.10;;;;;;6243183;22;43494;-62
2022/07/30 09:08:31;;;;;;;1.67;1.55;;;21.70;64.10;;;;;;6241704;22;44976;-63
2022/07/30 09:10:59;;;;;;;1.98;1.52;;;21.70;64.20;;;;;;6216049;22;43939;-62
2022/07/30 09:13:30;;;;;;;2.83;1.42;;;21.70;64.20;;;;;;6243421;22;43343;-62
2022/07/30 09:16:00;;;;;;;1.92;1.73;;;21.70;64.30;;;;;;6216057;22;43350;-63
2022/07/30 09:18:32;;;;;;;1.60;1.50;;;21.80;64.30;;;;;;6215689;22;45264;-62
2022/07/30 09:21:13;;;;;;;2.23;1.60;;;21.70;64.20;;;;;;6243315;22;43904;-62
2022/07/30 09:23:54;;;;;;;1.60;1.50;;;21.80;64.30;;;;;;6215607;22;43436;-62
2022/07/30 09:26:58;;;;;;;3.25;1.60;;;21.80;64.30;;;;;;6185466;22;44304;-62
2022/07/30 09:29:56;;;;;;;1.67;1.58;;;21.80;64.40;;;;;;6242172;22;44781;-63
2022/07/30 09:32:53;;;;;;;1.92;1.67;;;21.80;64.20;;;;;;6242643;22;43324;-62
2022/07/30 09:35:32;;;;;;;2.55;1.70;;;21.80;64.40;;;;;;6243429;22;43383;-62
2022/07/30 09:38:10;;;;;;;2.30;1.70;;;21.80;64.30;;;;;;6242216;22;43842;-62
2022/07/30 09:40:55;;;;;;;1.50;1.40;;;21.80;64.20;;;;;;6243322;22;44952;-63
2022/07/30 09:43:51;;;;;;;1.50;1.40;;;21.80;64.20;;;;;;6225790;22;43380;-63
2022/07/30 09:47:01;;;;;;;1.88;1.50;;;21.80;64.30;;;;;;6215919;22;43405;-62
2022/07/30 09:49:36;;;;;;;1.60;1.50;;;21.90;64.50;;;;;;6206664;22;43423;-63
2022/07/30 09:52:03;;;;;;;2.88;1.70;;;21.90;64.40;;;;;;6242097;22;43780;-62
2022/07/30 09:54:49;;;;;;;3.00;1.70;;;21.90;64.40;;;;;;6215911;22;43438;-63
2022/07/30 09:57:23;;;;;;;1.50;1.35;;;21.90;64.30;;;;;;6215280;22;43424;-62
2022/07/30 10:00:22;;;;;;;1.70;1.50;;;21.90;64.40;;;;;;6216389;22;43466;-62
2022/07/30 10:03:14;;;;;;;1.70;1.60;;;21.90;64.50;;;;;;6215793;22;45101;-62
2022/07/30 10:06:32;;;;;;;1.85;1.50;;;21.90;64.50;;;;;;6242494;22;43381;-62
2022/07/30 10:09:02;;;;;;;2.13;1.55;;;22.00;64.50;;;;;;6216777;22;43416;-62
2022/07/30 10:11:47;;;;;;;1.60;1.50;;;22.00;64.50;;;;;;6216076;22;43503;-63
2022/07/30 10:14:16;;;;;;;2.83;1.52;;;22.00;64.40;;;;;;6216230;22;45080;-62
2022/07/30 10:16:53;;;;;;;2.33;1.50;;;22.00;64.40;;;;;;6215929;22;43365;-62
2022/07/30 10:19:22;;;;;;;1.80;1.70;;;22.00;64.20;;;;;;6215712;22;43400;-62
2022/07/30 10:22:14;;;;;;;2.00;1.30;;;22.00;64.20;;;;;;6243485;22;43415;-62
2022/07/30 10:25:20;;;;;;;1.50;1.40;;;22.00;64.00;;;;;;6175534;22;43962;-62
2022/07/30 10:28:14;;;;;;;1.63;1.50;;;22.00;64.00;;;;;;6243312;22;43436;-62
2022/07/30 10:30:44;;;;;;;2.67;1.70;;;22.10;63.90;;;;;;6242497;22;43367;-62
2022/07/30 10:33:11;;;;;;;2.58;1.58;;;22.10;63.90;;;;;;6215637;22;43371;-63
2022/07/30 10:35:59;;;;;;;1.48;1.38;;;22.10;63.90;;;;;;6243432;22;44728;-63
2022/07/30 10:38:33;;;;;;;2.65;1.80;;;22.10;63.80;;;;;;6242480;22;43364;-62
2022/07/30 10:41:17;;;;;;;1.95;1.67;;;22.10;63.70;;;;;;6242715;22;43407;-62
2022/07/30 10:44:33;;;;;;;1.77;1.58;;;22.10;63.70;;;;;;6243281;22;43395;-63
2022/07/30 10:47:10;;;;;;;2.08;1.88;;;22.20;64.10;;;;;;6242464;22;44960;-62
2022/07/30 10:49:39;;;;;;;2.00;1.55;;;22.20;64.70;;;;;;6242595;22;44011;-62
2022/07/30 10:52:10;;;;;;;2.45;1.73;;;22.20;64.00;;;;;;6243083;22;43417;-62
2022/07/30 10:54:46;;;;;;;1.70;1.60;;;22.20;63.80;;;;;;6241995;22;43590;-62
2022/07/30 10:57:19;;;;;;;1.60;1.50;;;22.20;63.80;;;;;;6242611;22;44675;-62
2022/07/30 11:00:00;;;;;;;2.70;1.55;;;22.20;63.80;;;;;;6242937;22;43666;-63
2022/07/30 11:02:35;;;;;;;2.08;1.77;;;22.30;63.70;;;;;;6242212;22;43399;-62
2022/07/30 11:05:19;;;;;;;2.08;1.38;;;22.30;63.70;;;;;;6243372;22;43389;-62
2022/07/30 11:08:33;;;;;;;1.55;1.45;;;22.30;63.70;;;;;;6241854;22;44777;-63
2022/07/30 11:11:22;;;;;;;1.70;1.60;;;22.30;63.70;;;;;;6242966;22;43330;-62
2022/07/30 11:14:11;;;;;;;1.63;1.52;;;22.30;63.70;;;;;;6240458;22;43436;-62
2022/07/30 11:16:39;;;;;;;1.60;1.50;;;22.30;63.60;;;;;;6241681;22;43454;-63
2022/07/30 11:19:17;;;;;;;1.50;1.40;;;22.40;63.60;;;;;;6241971;22;44872;-63
2022/07/30 11:22:27;;;;;;;1.73;1.63;;;22.40;63.60;;;;;;6241774;22;44764;-63
2022/07/30 11:24:57;;;;;;;1.92;1.80;;;22.40;63.80;;;;;;6243314;22;43314;-62
2022/07/30 11:27:47;;;;;;;2.20;1.60;;;22.40;63.80;;;;;;6241657;22;43597;-62
2022/07/30 11:30:15;;;;;;;1.70;1.60;;;22.50;64.00;;;;;;6242092;22;44944;-62
2022/07/30 11:32:48;;;;;;;1.63;1.50;;;22.50;64.00;;;;;;6242472;22;43396;-63
2022/07/30 11:35:33;;;;;;;1.92;1.60;;;22.50;64.10;;;;;;6243065;22;43407;-62
2022/07/30 11:38:07;;;;;;;1.52;1.50;;;22.50;64.20;;;;;;6242194;22;43530;-62
2022/07/30 11:40:40;;;;;;;1.70;1.60;;;22.50;64.00;;;;;;6242329;22;43766;-62
2022/07/30 11:43:24;;;;;;;2.25;1.70;;;22.50;64.20;;;;;;6241759;22;43945;-63
2022/07/30 11:46:10;;;;;;;2.05;1.73;;;22.60;64.20;;;;;;6243310;22;43403;-62
2022/07/30 11:49:01;;;;;;;2.13;1.92;;;22.60;64.10;;;;;;6242715;22;43327;-63
2022/07/30 11:51:44;;;;;;;1.73;1.63;;;22.60;64.50;;;;;;6241756;22;44945;-63
2022/07/30 11:54:12;;;;;;;1.58;1.45;;;22.60;64.40;;;;;;6242556;22;43409;-63
2022/07/30 11:56:56;;;;;;;2.22;1.45;;;22.60;64.20;;;;;;6242043;22;43415;-63
2022/07/30 11:59:30;;;;;;;1.58;1.48;;;22.60;64.20;;;;;;6242403;22;43531;-63
2022/07/30 12:02:00;;;;;;;1.52;1.42;;;22.70;64.20;;;;;;6242862;22;44014;-62
2022/07/30 12:04:29;;;;;;;1.50;1.40;;;22.70;64.10;;;;;;6241603;22;43349;-62
2022/07/30 12:06:56;;;;;;;1.70;1.60;;;22.70;64.20;;;;;;6242363;22;43411;-63
2022/07/30 12:09:28;;;;;;;2.08;1.88;;;22.70;64.00;;;;;;6241895;22;43428;-62
2022/07/30 12:11:56;;;;;;;2.25;1.50;;;22.70;64.10;;;;;;6241556;22;44003;-62
2022/07/30 12:14:24;;;;;;;1.83;1.73;;;22.80;64.10;;;;;;6241807;22;43435;-62
2022/07/30 12:16:53;;;;;;;1.50;1.40;;;22.80;63.80;;;;;;6241923;22;43403;-62
2022/07/30 12:19:20;;;;;;;1.60;1.50;;;22.80;63.80;;;;;;6241365;22;43542;-63
2022/07/30 12:21:48;;;;;;;2.33;1.80;;;22.80;63.80;;;;;;6242092;22;43792;-63
2022/07/30 12:24:25;;;;;;;1.70;1.60;;;22.90;63.80;;;;;;6242050;22;43335;-62
2022/07/30 12:27:04;;;;;;;1.73;1.52;;;22.90;63.80;;;;;;6214619;22;43388;-62
2022/07/30 12:29:34;;;;;;;1.58;1.48;;;22.90;63.60;;;;;;6242085;22;43548;-62
2022/07/30 12:32:02;;;;;;;1.63;1.52;;;22.90;63.90;;;;;;6241681;22;44171;-62
2022/07/30 12:34:30;;;;;;;2.08;1.70;;;23.00;63.70;;;;;;6240614;22;43962;-62
2022/07/30 12:37:09;;;;;;;3.90;1.92;;;23.00;63.70;;;;;;6241594;22;43357;-62
2022/07/30 12:39:36;;;;;;;1.90;1.80;;;23.00;63.70;;;;;;6241590;22;43482;-62
2022/07/30 12:42:16;;;;;;;2.53;1.92;;;23.10;63.90;;;;;;6242796;22;44057;-62
2022/07/30 12:44:44;;;;;;;2.38;1.70;;;23.10;63.80;;;;;;6215973;22;43406;-62
2022/07/30 12:47:19;;;;;;;1.70;1.60;;;23.10;64.20;;;;;;6242748;22;43428;-62
2022/07/30 12:49:46;;;;;;;1.77;1.65;;;23.10;63.60;;;;;;6243002;22;43533;-62
2022/07/30 12:52:36;;;;;;;2.58;1.60;;;23.20;63.60;;;;;;6243321;22;44753;-62
2022/07/30 12:55:07;;;;;;;2.75;1.67;;;23.20;63.60;;;;;;6242479;22;44445;-62
2022/07/30 12:57:52;;;;;;;1.98;1.80;;;23.20;63.60;;;;;;6243193;22;43432;-63
2022/07/30 13:00:21;;;;;;;1.60;1.50;;;23.20;63.70;;;;;;6242363;22;43477;-62
2022/07/30 13:02:48;;;;;;;1.33;1.27;;;23.30;63.70;;;;;;6243124;22;43792;-62
2022/07/30 13:05:16;;;;;;;1.50;1.40;;;23.30;63.60;;;;;;6242984;22;43983;-63
2022/07/30 13:07:59;;;;;;;1.75;1.65;;;23.30;63.50;;;;;;6241933;22;43463;-62
2022/07/30 13:10:27;;;;;;;1.88;1.63;;;23.30;63.50;;;;;;6243211;22;43514;-62
2022/07/30 13:12:58;;;;;;;;;;;23.40;63.50;;;;;;6243821;22;43753;-62
2022/07/30 13:15:25;;;;;;;1.42;1.33;;;23.40;63.50;;;;;;6242023;22;43695;-62
2022/07/30 13:17:53;;;;;;;1.60;1.50;;;23.40;63.60;;;;;;6243277;22;43980;-62
2022/07/30 13:20:20;;;;;;;1.83;1.60;;;23.40;64.10;;;;;;6242773;22;43477;-63
2022/07/30 13:22:48;;;;;;;1.65;1.55;;;23.40;63.60;;;;;;6241416;22;43749;-63
2022/07/30 13:25:16;;;;;;;1.80;1.70;;;23.40;63.50;;;;;;6242763;22;43418;-63
2022/07/30 13:27:44;;;;;;;1.63;1.52;;;23.40;63.50;;;;;;6242948;22;43372;-63
2022/07/30 13:30:12;;;;;;;1.48;1.40;;;23.40;63.50;;;;;;6242073;22;43415;-62